»·PEaware :: UAL839 KLAX-YSSY

UAL839 :: KLAX-YSSY

FLIGHT INFORMATION

Flight Status: Arrived
Operator:
United Airlines
More flights by this operator :: More flights under this callsign
Pilot: Bryan S. (13276)
Aircraft: Boeing 787-8 Dreamliner
(B788)
More flights by this aircraft type
Origin: KLAX Los Angeles Intl
United States
Destination: YSSY Kingsford Smith Intl
Australia
More flights between these airports :: More routes between these airports
Route: DARRK1 FICKY R578 FLITY R578 FITES CHEEM ADOWA B474 ARTOP B474 SON 1900S/16300E HARVS SCOTT Y32 CG Q53 APAGI H62 CORKY H12 SADLO H12 BOREE6
File this flight plan on PilotEdge
Remarks:
Altitude:
(Current/Filed)
32,000ft
Speed:
(Current/Filed)
490kts
Departed: 22-May-17 05:39 AM
Arrived: 22-May-17 12:12 PM
Distance/Time
Traveled:
6508nm/6:33
Distance/Time
To Go:
Arrived

Flight Plot

Page will automatically refresh every two minutes.

Flight plan parsing failed; only flown route is shown


Map Options




Map Legend


Flown Route
Filed Route
Departure Airport
Arrival Airport
Navaid (VOR, NDB)
Fix

Horizontal Profiles

Position Reports

Time Latitude Longitude Heading Altitude Ground
Speed
22-May-17 05:40 15.515345 -163.564811 228 32090ft 475kts
22-May-17 05:41 15.353333 -163.770133 228 32090ft 475kts
22-May-17 05:42 15.083288 -164.111172 228 32088ft 475kts
22-May-17 05:43 14.802882 -164.463693 229 32091ft 466kts
22-May-17 05:44 14.616101 -164.697630 229 32095ft 466kts
22-May-17 05:45 14.168060 -165.256014 232 32089ft 469kts
22-May-17 05:46 14.047881 -165.405144 232 32087ft 469kts
22-May-17 05:47 13.711028 -165.821379 230 32089ft 470kts
22-May-17 05:48 13.227812 -166.318776 227 32088ft 471kts
22-May-17 05:49 12.751433 -166.805203 227 32093ft 467kts
22-May-17 05:50 12.256101 -167.308083 227 32089ft 476kts
22-May-17 05:51 11.703426 -167.865874 227 32092ft 476kts
22-May-17 05:52 11.172625 -168.398481 227 32088ft 476kts
22-May-17 05:53 11.087899 -168.483225 227 32088ft 476kts
22-May-17 05:54 10.993654 -168.577395 227 32086ft 474kts
22-May-17 05:55 10.900818 -168.670082 227 32097ft 471kts
22-May-17 05:56 10.808665 -168.761992 227 32011ft 472kts
22-May-17 05:57 10.731795 -168.838607 227 31896ft 473kts
22-May-17 05:58 10.641136 -168.928881 227 31860ft 474kts
22-May-17 05:59 10.534706 -169.034754 227 31855ft 476kts
22-May-17 06:00 10.458757 -169.110254 227 31858ft 479kts
22-May-17 06:01 10.264156 -169.303456 227 31862ft 482kts
22-May-17 06:02 10.095315 -169.470779 227 33576ft 473kts
22-May-17 06:03 9.889290 -169.674589 227 35848ft 462kts
22-May-17 06:04 9.630534 -169.930045 227 35863ft 463kts
22-May-17 06:05 9.369749 -170.186915 227 35858ft 463kts
22-May-17 06:06 9.069647 -170.481820 227 35857ft 462kts
22-May-17 06:07 8.761232 -170.784174 227 35860ft 458kts
22-May-17 06:08 8.447514 -171.090965 227 35858ft 461kts
22-May-17 06:09 8.139790 -171.391179 227 35854ft 462kts
22-May-17 06:10 7.829966 -171.692755 227 35862ft 461kts
22-May-17 06:11 7.518180 -171.995588 227 35857ft 462kts
22-May-17 06:12 7.209861 -172.294419 227 35855ft 461kts
22-May-17 06:13 6.902711 -172.591634 226 35855ft 467kts
22-May-17 06:14 6.628391 -172.856431 225 35859ft 468kts
22-May-17 06:15 6.538335 -172.943287 225 35857ft 468kts
22-May-17 06:16 6.447020 -173.031319 225 35830ft 468kts
22-May-17 06:17 6.354278 -173.120668 225 35829ft 468kts
22-May-17 06:18 6.088853 -173.376142 225 35830ft 468kts
22-May-17 06:19 5.670861 -173.777755 225 35832ft 468kts
22-May-17 06:20 5.298518 -174.134759 225 35830ft 468kts
22-May-17 06:21 4.935177 -174.482560 225 35828ft 472kts
22-May-17 06:22 4.502657 -174.895849 225 35831ft 472kts
22-May-17 06:23 4.165312 -175.217718 224 35829ft 471kts
22-May-17 06:24 3.785752 -175.579352 224 35910ft 471kts
22-May-17 06:25 3.341754 -176.001843 224 35911ft 471kts
22-May-17 06:26 2.888231 -176.432816 224 35910ft 470kts
22-May-17 06:27 2.441870 -176.856503 224 35912ft 470kts
22-May-17 06:28 1.958074 -177.315269 223 35909ft 469kts
22-May-17 06:29 1.470427 -177.777290 223 35913ft 469kts
22-May-17 06:30 1.039341 -178.185468 224 35910ft 471kts
22-May-17 06:31 0.562647 -178.636661 224 35909ft 473kts
22-May-17 06:32 0.083823 -179.089760 224 35910ft 473kts
22-May-17 06:33 -0.390305 -179.538399 224 35914ft 473kts
22-May-17 06:34 -0.828522 -179.953115 224 35911ft 473kts
22-May-17 06:35 -1.320804 179.638597 219 35884ft 482kts
22-May-17 06:36 -1.817423 179.233048 219 35883ft 482kts
22-May-17 06:37 -2.330177 178.814002 220 35884ft 474kts
22-May-17 06:38 -2.810244 178.421261 220 35884ft 474kts
22-May-17 06:39 -3.321280 178.002746 219 35885ft 489kts
22-May-17 06:40 -3.843494 177.574471 219 35884ft 489kts
22-May-17 06:41 -4.348249 177.159850 219 35884ft 489kts
22-May-17 06:42 -4.853085 176.744419 219 35885ft 483kts
22-May-17 06:43 -5.261531 176.407705 219 35884ft 485kts
22-May-17 06:44 -5.345255 176.338612 219 35885ft 485kts
22-May-17 06:45 -5.449072 176.252903 219 35885ft 485kts
22-May-17 06:46 -5.552718 176.167296 219 35885ft 485kts
22-May-17 06:47 -5.656218 176.081769 219 35885ft 485kts
22-May-17 06:48 -5.759841 175.996099 219 35885ft 485kts
22-May-17 06:49 -5.863706 175.910188 219 35884ft 485kts
22-May-17 06:50 -5.967391 175.824381 219 35884ft 485kts
22-May-17 06:51 -6.070990 175.738603 219 35884ft 485kts
22-May-17 06:52 -6.174906 175.652521 219 35884ft 485kts
22-May-17 06:53 -6.278012 175.565799 220 35885ft 485kts
22-May-17 06:54 -6.379787 175.477478 221 35884ft 485kts
22-May-17 06:55 -6.481600 175.388985 221 35884ft 485kts
22-May-17 06:56 -6.582907 175.300879 221 35885ft 485kts
22-May-17 06:57 -6.684552 175.212430 221 35885ft 485kts
22-May-17 06:58 -6.785700 175.124375 221 35885ft 485kts
22-May-17 06:59 -6.887411 175.035769 221 35885ft 485kts
22-May-17 07:00 -6.988707 174.947472 221 35885ft 484kts
22-May-17 07:01 -7.089449 174.859595 221 35885ft 483kts
22-May-17 07:02 -7.190718 174.771214 221 35884ft 483kts
22-May-17 07:03 -7.291896 174.682860 221 35884ft 483kts
22-May-17 07:04 -7.393180 174.594358 221 35884ft 483kts
22-May-17 07:05 -7.494078 174.506138 221 35884ft 483kts
22-May-17 07:06 -7.595256 174.417617 221 35884ft 483kts
22-May-17 07:07 -7.696459 174.329015 221 35886ft 483kts
22-May-17 07:08 -7.797474 174.240524 221 35885ft 483kts
22-May-17 07:09 -7.898601 174.151873 221 35885ft 483kts
22-May-17 07:10 -7.999719 174.063170 221 35885ft 483kts
22-May-17 07:11 -8.100597 173.974616 221 35885ft 483kts
22-May-17 07:12 -8.201282 173.886169 221 35884ft 483kts
22-May-17 07:13 -8.302517 173.797180 221 35884ft 483kts
22-May-17 07:14 -8.403394 173.708442 221 35884ft 483kts
22-May-17 07:15 -8.504256 173.619653 221 35884ft 483kts
22-May-17 07:16 -8.604697 173.531177 221 35850ft 480kts
22-May-17 07:17 -8.705168 173.442597 221 35856ft 481kts
22-May-17 07:18 -8.805819 173.353798 221 35856ft 481kts
22-May-17 07:19 -8.903309 173.267729 221 35858ft 481kts
22-May-17 07:20 -9.003704 173.179032 221 35858ft 480kts
22-May-17 07:21 -9.102796 173.091413 221 35858ft 477kts
22-May-17 07:22 -9.202051 173.003542 221 35858ft 477kts
22-May-17 07:23 -9.301906 172.915103 221 35858ft 479kts
22-May-17 07:24 -9.401947 172.826454 221 35857ft 481kts
22-May-17 07:25 -9.502505 172.737280 221 35857ft 482kts
22-May-17 07:26 -9.603012 172.648061 221 35857ft 482kts
22-May-17 07:27 -9.703473 172.558803 221 35857ft 482kts
22-May-17 07:28 -9.803432 172.469922 221 35857ft 482kts
22-May-17 07:29 -9.903185 172.380673 221 35857ft 482kts
22-May-17 07:30 -10.003338 172.290939 221 35857ft 482kts
22-May-17 07:31 -10.103288 172.201312 221 35857ft 482kts
22-May-17 07:32 -10.203163 172.111668 221 35858ft 482kts
22-May-17 07:33 -10.303221 172.021785 221 35858ft 482kts
22-May-17 07:34 -10.403369 171.931746 221 35858ft 482kts
22-May-17 07:35 -10.503297 171.841818 221 35857ft 482kts
22-May-17 07:36 -10.603281 171.751760 221 35857ft 482kts
22-May-17 07:37 -10.703005 171.661856 221 35857ft 482kts
22-May-17 07:38 -10.802975 171.571644 221 35857ft 482kts
22-May-17 07:39 -10.902893 171.481392 221 35857ft 481kts
22-May-17 07:40 -11.001697 171.392042 221 35855ft 475kts
22-May-17 07:41 -11.099011 171.304013 221 35859ft 473kts
22-May-17 07:42 -11.196838 171.215419 221 35858ft 473kts
22-May-17 07:43 -11.294423 171.126944 221 35857ft 473kts
22-May-17 07:44 -11.392498 171.037940 220 35858ft 474kts
22-May-17 07:45 -11.490651 170.948791 220 35858ft 475kts
22-May-17 07:46 -11.589331 170.859074 220 35858ft 477kts
22-May-17 07:47 -11.687834 170.769431 220 35857ft 477kts
22-May-17 07:48 -11.783991 170.681826 220 35841ft 477kts
22-May-17 07:49 -11.878557 170.595597 220 35829ft 477kts
22-May-17 07:50 -11.974362 170.508153 220 35829ft 477kts
22-May-17 07:51 -12.069767 170.420977 220 35828ft 477kts
22-May-17 07:52 -12.165144 170.333753 220 35831ft 477kts
22-May-17 07:53 -12.258944 170.247877 220 35832ft 477kts
22-May-17 07:54 -12.353685 170.161055 220 35831ft 477kts
22-May-17 07:55 -12.449072 170.073557 220 35831ft 477kts
22-May-17 07:56 -12.543436 169.986900 220 35830ft 477kts
22-May-17 07:57 -12.638978 169.899075 220 35830ft 477kts
22-May-17 07:58 -12.734461 169.811208 220 35830ft 477kts
22-May-17 07:59 -12.829332 169.723818 220 35830ft 477kts
22-May-17 08:00 -12.924717 169.635862 220 35829ft 477kts
22-May-17 08:01 -13.019270 169.548593 221 35828ft 473kts
22-May-17 08:02 -13.113668 169.461394 221 35830ft 467kts
22-May-17 08:03 -13.208509 169.373607 221 35872ft 467kts
22-May-17 08:04 -13.304033 169.285132 221 35944ft 466kts
22-May-17 08:05 -13.400346 169.195834 221 36014ft 466kts
22-May-17 08:06 -13.496272 169.106780 221 36020ft 468kts
22-May-17 08:07 -13.592691 169.017179 221 36020ft 470kts
22-May-17 08:08 -13.689716 168.926924 221 36019ft 471kts
22-May-17 08:09 -13.786357 168.836913 221 36018ft 471kts
22-May-17 08:10 -13.883131 168.746671 221 36018ft 471kts
22-May-17 08:11 -13.980160 168.656084 221 36017ft 471kts
22-May-17 08:12 -14.076792 168.565760 221 36017ft 471kts
22-May-17 08:13 -14.173537 168.475228 221 36020ft 471kts
22-May-17 08:14 -14.270132 168.384721 221 36020ft 471kts
22-May-17 08:15 -14.366562 168.294259 221 36021ft 471kts
22-May-17 08:16 -14.463152 168.203544 221 36017ft 471kts
22-May-17 08:17 -14.559342 168.113087 221 35993ft 472kts
22-May-17 08:18 -14.655450 168.022592 221 35992ft 472kts
22-May-17 08:19 -14.751993 167.931579 221 35992ft 472kts
22-May-17 08:20 -14.848107 167.840855 221 35991ft 472kts
22-May-17 08:21 -14.944140 167.750118 221 35990ft 467kts
22-May-17 08:22 -15.038615 167.660749 222 35988ft 460kts
22-May-17 08:23 -15.132349 167.571888 222 35994ft 460kts
22-May-17 08:24 -15.225841 167.483193 222 35992ft 460kts
22-May-17 08:25 -15.319601 167.394134 222 35991ft 460kts
22-May-17 08:26 -15.413438 167.304887 222 35995ft 460kts
22-May-17 08:27 -15.507831 167.216266 217 35976ft 460kts
22-May-17 08:28 -15.613231 167.142725 213 35993ft 460kts
22-May-17 08:29 -15.719216 167.069447 214 35992ft 460kts
22-May-17 08:30 -15.825163 166.996146 214 35991ft 461kts
22-May-17 08:31 -15.931166 166.922706 214 35990ft 462kts
22-May-17 08:32 -16.037103 166.849220 214 35990ft 463kts
22-May-17 08:33 -16.143638 166.775227 214 35994ft 463kts
22-May-17 08:34 -16.249936 166.701301 214 35993ft 463kts
22-May-17 08:35 -16.356593 166.627023 214 35992ft 463kts
22-May-17 08:36 -16.463041 166.552791 214 35991ft 463kts
22-May-17 08:37 -16.569453 166.478485 214 35990ft 463kts
22-May-17 08:38 -16.675771 166.404145 214 35989ft 463kts
22-May-17 08:39 -16.782183 166.329635 214 35994ft 463kts
22-May-17 08:40 -16.888315 166.255226 214 35992ft 463kts
22-May-17 08:41 -16.994691 166.180562 214 35992ft 461kts
22-May-17 08:42 -17.098835 166.107371 215 35990ft 450kts
22-May-17 08:43 -17.201543 166.035011 215 35995ft 449kts
22-May-17 08:44 -17.304520 165.962410 215 35994ft 449kts
22-May-17 08:45 -17.407222 165.889905 215 35993ft 449kts
22-May-17 08:46 -17.509832 165.817367 215 35991ft 449kts
22-May-17 08:47 -17.612723 165.744529 215 35990ft 449kts
22-May-17 08:48 -17.715820 165.671442 215 35989ft 449kts
22-May-17 08:49 -17.818661 165.598433 215 35988ft 449kts
22-May-17 08:50 -17.921245 165.525503 215 35986ft 449kts
22-May-17 08:51 -18.024223 165.452189 215 35985ft 449kts
22-May-17 08:52 -18.126522 165.379257 215 35992ft 449kts
22-May-17 08:53 -18.228956 165.306120 215 35997ft 449kts
22-May-17 08:54 -18.331571 165.232750 215 35996ft 449kts
22-May-17 08:55 -18.434175 165.159280 215 35995ft 449kts
22-May-17 08:56 -18.519537 165.098070 215 35993ft 449kts
22-May-17 08:57 -18.639799 165.011708 215 35992ft 451kts
22-May-17 08:58 -18.725922 164.949772 215 35991ft 453kts
22-May-17 08:59 -18.847075 164.862513 215 35990ft 455kts
22-May-17 09:00 -18.950480 164.787973 215 35987ft 447kts
22-May-17 09:01 -19.051534 164.714975 216 35985ft 438kts
22-May-17 09:02 -19.150491 164.643299 216 35992ft 439kts
22-May-17 09:03 -19.250365 164.570923 216 35990ft 438kts
22-May-17 09:04 -19.333597 164.510522 216 35989ft 439kts
22-May-17 09:05 -19.450240 164.425747 216 35987ft 439kts
22-May-17 09:06 -19.533372 164.365237 216 35986ft 439kts
22-May-17 09:07 -19.633244 164.292441 216 35995ft 438kts
22-May-17 09:08 -19.733344 164.219365 216 35994ft 438kts
22-May-17 09:09 -19.833164 164.146381 216 35992ft 438kts
22-May-17 09:10 -19.932956 164.073305 216 35990ft 438kts
22-May-17 09:11 -20.032993 163.999933 216 35989ft 438kts
22-May-17 09:12 -20.132036 163.927176 216 35997ft 439kts
22-May-17 09:13 -20.231814 163.853763 216 35993ft 438kts
22-May-17 09:14 -20.331322 163.780434 216 35992ft 438kts
22-May-17 09:15 -20.430998 163.706865 216 35990ft 438kts
22-May-17 09:16 -20.530607 163.633224 216 35989ft 438kts
22-May-17 09:17 -20.630364 163.559349 216 35987ft 438kts
22-May-17 09:18 -20.730081 163.485398 216 35986ft 438kts
22-May-17 09:19 -20.829572 163.411484 216 35984ft 438kts
22-May-17 09:20 -20.929418 163.337180 217 35992ft 438kts
22-May-17 09:21 -21.028486 163.263396 217 35991ft 431kts
22-May-17 09:22 -21.125330 163.191101 218 36001ft 420kts
22-May-17 09:23 -21.221220 163.119349 218 35997ft 423kts
22-May-17 09:24 -21.317456 163.047268 218 35995ft 425kts
22-May-17 09:25 -21.403736 162.963118 231 36017ft 424kts
22-May-17 09:26 -21.473062 162.861258 234 35991ft 423kts
22-May-17 09:27 -21.541187 162.758846 235 35989ft 423kts
22-May-17 09:28 -21.609208 162.656499 234 35987ft 423kts
22-May-17 09:29 -21.677394 162.553674 234 35985ft 423kts
22-May-17 09:30 -21.745392 162.450947 234 35983ft 423kts
22-May-17 09:31 -21.813459 162.347921 235 35982ft 423kts
22-May-17 09:32 -21.881287 162.245068 235 35993ft 423kts
22-May-17 09:33 -21.949264 162.141791 235 35991ft 423kts
22-May-17 09:34 -22.017030 162.038637 235 35989ft 423kts
22-May-17 09:35 -22.084772 161.935323 235 35987ft 423kts
22-May-17 09:36 -22.152357 161.832050 235 35993ft 423kts
22-May-17 09:37 -22.220040 161.728428 235 35992ft 423kts
22-May-17 09:38 -22.287628 161.624751 235 35990ft 423kts
22-May-17 09:39 -22.354973 161.521245 235 35988ft 423kts
22-May-17 09:40 -22.422484 161.417283 235 35986ft 423kts
22-May-17 09:41 -22.489158 161.314397 235 36000ft 423kts
22-May-17 09:42 -22.556426 161.210418 235 35995ft 423kts
22-May-17 09:43 -22.623618 161.106337 235 35993ft 423kts
22-May-17 09:44 -22.690732 161.002186 235 35991ft 424kts
22-May-17 09:45 -22.758275 160.897155 235 35989ft 426kts
22-May-17 09:46 -22.825989 160.791634 236 35988ft 429kts
22-May-17 09:47 -22.893778 160.685769 236 35987ft 428kts
22-May-17 09:48 -22.960869 160.580817 236 35983ft 421kts
22-May-17 09:49 -23.026740 160.477548 236 35980ft 414kts
22-May-17 09:50 -23.091707 160.375467 236 35978ft 413kts
22-May-17 09:51 -23.156832 160.272960 236 35998ft 413kts
22-May-17 09:52 -23.221875 160.170384 236 35998ft 413kts
22-May-17 09:53 -23.286747 160.067870 236 35996ft 413kts
22-May-17 09:54 -23.351611 159.965163 236 35994ft 413kts
22-May-17 09:55 -23.416589 159.862067 236 35991ft 413kts
22-May-17 09:56 -23.481295 159.759194 236 35989ft 413kts
22-May-17 09:57 -23.545901 159.656272 236 35987ft 413kts
22-May-17 09:58 -23.610631 159.552943 236 35985ft 413kts
22-May-17 09:59 -23.674966 159.450034 236 35982ft 413kts
22-May-17 10:00 -23.739425 159.346716 237 35982ft 413kts
22-May-17 10:01 -23.803775 159.243360 237 36063ft 413kts
22-May-17 10:02 -23.868236 159.139618 237 36134ft 412kts
22-May-17 10:03 -23.932619 159.035811 237 36152ft 415kts
22-May-17 10:04 -23.997272 158.931321 237 36150ft 418kts
22-May-17 10:05 -24.062341 158.825912 237 36156ft 419kts
22-May-17 10:06 -24.127382 158.720341 237 36163ft 419kts
22-May-17 10:07 -24.192106 158.615070 237 36155ft 419kts
22-May-17 10:08 -24.256994 158.509306 237 36164ft 419kts
22-May-17 10:09 -24.321805 158.403437 237 36173ft 419kts
22-May-17 10:10 -24.386679 158.297235 238 36181ft 419kts
22-May-17 10:11 -24.451368 158.191108 238 36180ft 419kts
22-May-17 10:12 -24.515893 158.085024 238 36183ft 419kts
22-May-17 10:13 -24.580383 157.978763 238 36181ft 419kts
22-May-17 10:14 -24.644740 157.872490 238 36179ft 419kts
22-May-17 10:15 -24.709101 157.765974 238 36177ft 419kts
22-May-17 10:16 -24.773428 157.659281 238 36175ft 419kts
22-May-17 10:17 -24.837861 157.552206 238 36181ft 425kts
22-May-17 10:18 -24.902897 157.443842 238 36171ft 424kts
22-May-17 10:19 -24.967596 157.335779 239 36180ft 423kts
22-May-17 10:20 -25.031686 157.228587 239 36183ft 417kts
22-May-17 10:21 -25.094806 157.122758 239 36182ft 412kts
22-May-17 10:22 -25.157647 157.017092 240 36184ft 412kts
22-May-17 10:23 -25.220486 156.911185 240 36181ft 414kts
22-May-17 10:24 -25.283336 156.805051 240 36179ft 414kts
22-May-17 10:25 -25.345936 156.699035 240 36167ft 407kts
22-May-17 10:26 -25.405792 156.597531 240 36165ft 383kts
22-May-17 10:27 -25.462274 156.501504 240 36164ft 362kts
22-May-17 10:28 -25.515387 156.411023 241 36161ft 342kts
22-May-17 10:29 -25.565613 156.325272 241 36183ft 323kts
22-May-17 10:30 -25.598881 156.266379 245 36170ft 312kts
22-May-17 10:31 -25.635177 156.181655 250 36191ft 307kts
22-May-17 10:32 -25.669503 156.088896 250 36202ft 346kts
22-May-17 10:33 -25.707573 155.984412 250 36197ft 386kts
22-May-17 10:34 -25.748931 155.869431 250 36180ft 410kts
22-May-17 10:35 -25.811900 155.765898 227 36212ft 424kts
22-May-17 10:36 -25.900043 155.679147 227 36175ft 423kts
22-May-17 10:37 -25.988110 155.592726 227 36173ft 424kts
22-May-17 10:38 -26.076102 155.506191 227 36171ft 424kts
22-May-17 10:39 -26.164089 155.419490 227 36172ft 424kts
22-May-17 10:40 -26.251649 155.333020 227 36189ft 423kts
22-May-17 10:41 -26.339360 155.246222 227 36187ft 423kts
22-May-17 10:42 -26.427255 155.159062 227 36185ft 423kts
22-May-17 10:43 -26.514974 155.071892 227 36183ft 423kts
22-May-17 10:44 -26.602535 154.984733 227 36182ft 425kts
22-May-17 10:45 -26.690522 154.896997 227 36180ft 427kts
22-May-17 10:46 -26.779274 154.808292 228 36178ft 429kts
22-May-17 10:47 -26.867965 154.719383 228 36176ft 429kts
22-May-17 10:48 -26.956157 154.631004 228 36174ft 422kts
22-May-17 10:49 -27.042339 154.544484 229 36171ft 413kts
22-May-17 10:50 -27.127428 154.458549 229 36116ft 413kts
22-May-17 10:51 -27.212667 154.372260 229 36118ft 413kts
22-May-17 10:52 -27.297514 154.286155 230 36099ft 413kts
22-May-17 10:53 -27.382668 154.199577 230 36081ft 413kts
22-May-17 10:54 -27.467319 154.113323 230 36062ft 413kts
22-May-17 10:55 -27.557443 154.032228 224 36033ft 420kts
22-May-17 10:56 -27.655211 153.959081 222 36019ft 423kts
22-May-17 10:57 -27.752797 153.886355 222 35997ft 423kts
22-May-17 10:58 -27.850889 153.813049 222 35995ft 423kts
22-May-17 10:59 -27.939451 153.730196 230 35994ft 412kts
22-May-17 11:00 -28.025866 153.645028 228 35991ft 415kts
22-May-17 11:01 -28.112423 153.559714 229 35990ft 414kts
22-May-17 11:02 -28.193856 153.469535 236 35994ft 406kts
22-May-17 11:03 -28.267186 153.372343 235 35986ft 407kts
22-May-17 11:04 -28.339675 153.275085 236 36008ft 405kts
22-May-17 11:05 -28.412071 153.177696 236 36069ft 405kts
22-May-17 11:06 -28.484623 153.079916 236 36159ft 406kts
22-May-17 11:07 -28.557309 152.981708 237 36087ft 407kts
22-May-17 11:08 -28.630254 152.882901 237 36010ft 409kts
22-May-17 11:09 -28.703382 152.783571 237 35995ft 409kts
22-May-17 11:10 -28.776118 152.684572 237 35993ft 409kts
22-May-17 11:11 -28.852370 152.587935 222 35940ft 430kts
22-May-17 11:12 -28.965186 152.532893 212 35995ft 446kts
22-May-17 11:13 -29.079321 152.481485 214 37618ft 439kts
22-May-17 11:14 -29.190676 152.430935 214 37986ft 434kts
22-May-17 11:15 -29.302884 152.379979 214 37990ft 434kts
22-May-17 11:16 -29.414035 152.329403 215 38166ft 434kts
22-May-17 11:17 -29.525192 152.278756 215 38216ft 434kts
22-May-17 11:18 -29.634822 152.228699 215 38215ft 434kts
22-May-17 11:19 -29.745796 152.177910 215 38214ft 434kts
22-May-17 11:20 -29.856011 152.127348 215 38213ft 434kts
22-May-17 11:21 -29.966675 152.076459 215 38212ft 434kts
22-May-17 11:22 -30.076771 152.025709 215 38210ft 434kts
22-May-17 11:23 -30.187596 151.974499 215 38208ft 434kts
22-May-17 11:24 -30.299447 151.922690 215 38207ft 434kts
22-May-17 11:25 -30.410747 151.871006 215 38205ft 434kts
22-May-17 11:26 -30.522502 151.818982 215 38204ft 434kts
22-May-17 11:27 -30.634128 151.766889 215 38203ft 434kts
22-May-17 11:28 -30.745973 151.714562 215 38202ft 434kts
22-May-17 11:29 -30.857617 151.662199 215 38200ft 434kts
22-May-17 11:30 -30.968636 151.610122 216 38198ft 429kts
22-May-17 11:31 -31.078481 151.558275 217 38196ft 425kts
22-May-17 11:32 -31.187128 151.506885 217 38193ft 426kts
22-May-17 11:33 -31.296659 151.454994 217 38192ft 426kts
22-May-17 11:34 -31.409876 151.410432 201 38183ft 461kts
22-May-17 11:35 -31.536149 151.392258 202 38191ft 460kts
22-May-17 11:36 -31.662958 151.375086 202 38190ft 461kts
22-May-17 11:37 -31.789809 151.357902 202 38190ft 461kts
22-May-17 11:38 -31.914824 151.340924 203 38174ft 460kts
22-May-17 11:39 -32.009286 151.327553 207 36515ft 438kts
22-May-17 11:40 -32.094960 151.269662 230 34085ft 370kts
22-May-17 11:41 -32.166887 151.206868 230 31433ft 360kts
22-May-17 11:42 -32.244829 151.138271 230 29663ft 322kts
22-May-17 11:43 -32.305257 151.085242 236 30480ft 222kts
22-May-17 11:44 -32.355745 151.039231 233 29636ft 271kts
22-May-17 11:45 -32.426971 150.975894 229 28875ft 356kts
22-May-17 11:46 -32.513710 150.918232 195 27782ft 411kts
22-May-17 11:47 -32.629931 150.935722 185 26817ft 423kts
22-May-17 11:48 -32.744506 150.955977 184 25435ft 411kts
22-May-17 11:49 -32.855391 150.975666 183 23938ft 401kts
22-May-17 11:50 -32.963634 150.994946 182 22444ft 391kts
22-May-17 11:51 -33.070856 151.013905 179 20969ft 397kts
22-May-17 11:52 -33.178203 151.033244 177 19309ft 390kts
22-May-17 11:53 -33.281519 151.052332 174 17143ft 374kts
22-May-17 11:54 -33.380649 151.071349 173 15057ft 357kts
22-May-17 11:55 -33.475902 151.089663 172 13032ft 340kts
22-May-17 11:56 -33.566055 151.107076 171 10989ft 326kts
22-May-17 11:57 -33.653446 151.124144 171 8884ft 316kts
22-May-17 11:58 -33.734857 151.140095 171 7978ft 272kts
22-May-17 11:59 -33.812762 151.152763 189 7982ft 283kts
22-May-17 12:00 -33.889569 151.132125 194 8002ft 283kts
22-May-17 12:01 -33.952948 151.114020 194 8000ft 283kts
22-May-17 12:02 -34.004148 151.099261 194 8000ft 283kts
22-May-17 12:03 -34.067125 151.081113 193 7999ft 283kts
22-May-17 12:04 -34.140525 151.093343 169 7850ft 250kts
22-May-17 12:05 -34.183888 151.129480 91 6889ft 245kts
22-May-17 12:06 -34.152471 151.202582 10 5293ft 233kts
22-May-17 12:07 -34.098935 151.218477 12 3839ft 243kts
22-May-17 12:08 -34.043775 151.205892 330 2727ft 166kts
22-May-17 12:09 -34.071098 151.217532 327 2755ft 153kts
22-May-17 12:10 -34.040885 151.198950 342 2307ft 144kts
22-May-17 12:11 -34.030238 151.198246 352 1419ft 137kts
22-May-17 12:12 -33.993267 151.187921 349 862ft 138kts
22-May-17 12:13 -33.951785 151.177373 347 11ft 85kts
22-May-17 12:14 -33.944811 151.175099 323 11ft 7kts
22-May-17 12:15 -33.942367 151.172910 344 11ft 16kts
22-May-17 12:16 -33.939891 151.171502 252 11ft 9kts
22-May-17 12:17 -33.940804 151.167601 253 11ft 13kts
22-May-17 12:18 -33.941653 151.163938 256 11ft 1kts
22-May-17 12:19 -33.941726 151.163566 256 11ft 1kts
22-May-17 12:20 -33.941496 151.163029 315 11ft 1kts
22-May-17 12:21 -33.941015 151.162752 349 11ft 1kts
22-May-17 12:22 -33.940482 151.162763 7 11ft 1kts
22-May-17 12:23 -33.939950 151.162868 9 11ft 1kts
22-May-17 12:24 -33.938735 151.163488 78 11ft 7kts
22-May-17 12:25 -33.938621 151.164849 73 11ft 3kts
22-May-17 12:26 -33.938615 151.164875 73 11ft 0kts
22-May-17 12:27 -33.938615 151.164875 73 11ft 0kts
22-May-17 12:28 -33.938615 151.164875 73 11ft 0kts
22-May-17 12:29 -33.938615 151.164875 73 11ft 0kts

Navigation Log

Ident Type
Flight plan parsing failed, navigation log unavailable